Time,TemperatureF,DewpointF,PressureIn,WindDirection,WindDirectionDegrees,WindSpeedMPH,WindSpeedGustMPH,Humidity,HourlyPrecipIn,Conditions,Clouds,dailyrainin,SoftwareType,DateUTC
2013-02-23 00:04:00,71.2,68.0,30.02,SSW,198,6.0,8.0,89,0.00,,,0.00,weatherlink.com 1.10,2013-02-23 05:04:00,
2013-02-23 00:19:00,71.1,68.0,30.02,SSW,198,5.0,9.0,89,0.00,,,0.00,weatherlink.com 1.10,2013-02-23 05:19:00,
2013-02-23 00:34:00,71.0,68.0,30.02,South,173,1.0,7.0,91,0.00,,,0.00,weatherlink.com 1.10,2013-02-23 05:34:00,
2013-02-23 00:49:00,71.0,69.0,30.02,SSE,153,1.0,6.0,92,0.00,,,0.00,weatherlink.com 1.10,2013-02-23 05:49:00,
2013-02-23 01:04:00,70.8,69.0,30.02,SSE,162,1.0,5.0,93,0.00,,,0.00,weatherlink.com 1.10,2013-02-23 06:04:00,
2013-02-23 01:19:00,70.7,69.0,30.01,SSW,197,5.0,7.0,94,0.00,,,0.00,weatherlink.com 1.10,2013-02-23 06:19:00,
2013-02-23 01:34:00,70.4,69.0,30.01,SSE,162,2.0,7.0,95,0.00,,,0.00,weatherlink.com 1.10,2013-02-23 06:34:00,
2013-02-23 01:49:00,70.5,69.0,30.00,South,173,4.0,7.0,96,0.00,,,0.00,weatherlink.com 1.10,2013-02-23 06:49:00,
2013-02-23 02:04:00,70.4,70.0,30.00,SSW,197,7.0,9.0,97,0.00,,,0.00,weatherlink.com 1.10,2013-02-23 07:04:00,
2013-02-23 02:19:00,70.1,69.0,29.99,SSW,195,7.0,8.0,97,0.00,,,0.00,weatherlink.com 1.10,2013-02-23 07:19:00,
2013-02-23 02:34:00,70.2,69.0,29.99,South,188,4.0,9.0,97,0.00,,,0.00,weatherlink.com 1.10,2013-02-23 07:34:00,
2013-02-23 02:49:00,70.1,69.0,29.99,SSW,196,4.0,9.0,97,0.00,,,0.00,weatherlink.com 1.10,2013-02-23 07:49:00,
2013-02-23 03:04:00,69.8,69.0,29.98,SSW,196,5.0,8.0,97,0.00,,,0.00,weatherlink.com 1.10,2013-02-23 08:04:00,
2013-02-23 03:19:00,69.4,69.0,29.98,South,180,6.0,7.0,97,0.00,,,0.00,weatherlink.com 1.10,2013-02-23 08:19:00,
2013-02-23 03:34:00,69.1,69.0,29.98,SSW,198,5.0,7.0,98,0.00,,,0.00,weatherlink.com 1.10,2013-02-23 08:34:00,
2013-02-23 03:49:00,69.1,69.0,29.98,South,186,2.0,6.0,98,0.00,,,0.00,weatherlink.com 1.10,2013-02-23 08:49:00,
2013-02-23 04:04:00,68.9,68.0,29.98,South,186,4.0,7.0,98,0.00,,,0.00,weatherlink.com 1.10,2013-02-23 09:04:00,
2013-02-23 04:19:00,69.3,69.0,29.97,SSW,203,8.0,9.0,98,0.00,,,0.00,weatherlink.com 1.10,2013-02-23 09:19:00,
2013-02-23 04:34:00,69.5,69.0,29.97,SSW,201,10.0,14.0,98,0.00,,,0.00,weatherlink.com 1.10,2013-02-23 09:34:00,
2013-02-23 04:49:00,69.8,69.0,29.97,SSW,197,8.0,18.0,98,0.00,,,0.00,weatherlink.com 1.10,2013-02-23 09:49:00,
2013-02-23 05:04:00,69.9,69.0,29.97,SSE,165,6.0,14.0,98,0.00,,,0.00,weatherlink.com 1.10,2013-02-23 10:04:00,
2013-02-23 05:19:00,69.9,69.0,29.97,South,169,9.0,14.0,97,0.00,,,0.00,weatherlink.com 1.10,2013-02-23 10:19:00,
2013-02-23 05:34:00,69.7,69.0,29.97,SSW,207,8.0,15.0,97,0.00,,,0.00,weatherlink.com 1.10,2013-02-23 10:34:00,
2013-02-23 05:49:00,69.5,69.0,29.97,SW,219,9.0,16.0,97,0.00,,,0.00,weatherlink.com 1.10,2013-02-23 10:49:00,
2013-02-23 06:04:00,69.2,68.0,29.97,SSW,205,7.0,12.0,97,0.00,,,0.00,weatherlink.com 1.10,2013-02-23 11:04:00,
2013-02-23 06:19:00,69.0,68.0,29.97,SSW,204,5.0,12.0,97,0.00,,,0.00,weatherlink.com 1.10,2013-02-23 11:19:00,
2013-02-23 06:34:00,68.9,68.0,29.98,SSW,205,7.0,12.0,97,0.00,,,0.00,weatherlink.com 1.10,2013-02-23 11:34:00,
2013-02-23 06:49:00,68.8,68.0,29.97,SSW,208,6.0,13.0,97,0.00,,,0.00,weatherlink.com 1.10,2013-02-23 11:49:00,
2013-02-23 07:04:00,69.1,69.0,29.98,SSE,165,6.0,10.0,98,0.00,,,0.00,weatherlink.com 1.10,2013-02-23 12:04:00,
2013-02-23 07:19:00,69.1,69.0,29.98,SSW,197,7.0,11.0,98,0.00,,,0.00,weatherlink.com 1.10,2013-02-23 12:19:00,
2013-02-23 07:35:00,69.7,69.0,29.98,South,184,7.0,12.0,97,0.00,,,0.00,weatherlink.com 1.10,2013-02-23 12:35:00,
2013-02-23 07:50:00,69.9,69.0,29.99,SSW,202,9.0,11.0,97,0.00,,,0.00,weatherlink.com 1.10,2013-02-23 12:50:00,
2013-02-23 08:05:00,70.5,70.0,29.99,SSW,206,7.0,11.0,97,0.00,,,0.00,weatherlink.com 1.10,2013-02-23 13:05:00,
2013-02-23 08:20:00,70.9,70.0,30.00,South,171,7.0,11.0,96,0.00,,,0.00,weatherlink.com 1.10,2013-02-23 13:20:00,
2013-02-23 08:35:00,71.0,70.0,30.00,SSW,207,7.0,11.0,95,0.00,,,0.00,weatherlink.com 1.10,2013-02-23 13:35:00,
2013-02-23 08:50:00,71.5,70.0,30.01,SSW,202,7.0,11.0,95,0.00,,,0.00,weatherlink.com 1.10,2013-02-23 13:50:00,
2013-02-23 09:05:00,72.2,70.0,30.00,South,181,8.0,17.0,93,0.00,,,0.00,weatherlink.com 1.10,2013-02-23 14:05:00,
2013-02-23 09:20:00,72.8,70.0,30.00,SSW,200,8.0,14.0,92,0.00,,,0.00,weatherlink.com 1.10,2013-02-23 14:20:00,
2013-02-23 09:35:00,73.4,70.0,30.00,SW,214,12.0,19.0,90,0.00,,,0.00,weatherlink.com 1.10,2013-02-23 14:35:00,
2013-02-23 09:50:00,74.6,71.0,30.00,South,186,10.0,15.0,87,0.00,,,0.00,weatherlink.com 1.10,2013-02-23 14:50:00,
2013-02-23 10:05:00,75.0,70.0,30.00,SW,217,15.0,18.0,85,0.00,,,0.00,weatherlink.com 1.10,2013-02-23 15:05:00,
2013-02-23 10:20:00,74.7,70.0,30.00,SW,222,11.0,13.0,85,0.00,,,0.00,weatherlink.com 1.10,2013-02-23 15:20:00,
2013-02-23 10:35:00,76.4,71.0,30.00,SW,217,9.0,16.0,82,0.00,,,0.00,weatherlink.com 1.10,2013-02-23 15:35:00,
2013-02-23 10:50:00,77.7,70.0,29.99,SSW,211,7.0,17.0,77,0.00,,,0.00,weatherlink.com 1.10,2013-02-23 15:50:00,
2013-02-23 11:05:00,78.5,70.0,29.99,SSW,195,5.0,21.0,76,0.00,,,0.00,weatherlink.com 1.10,2013-02-23 16:05:00,
2013-02-23 11:20:00,78.9,70.0,29.99,SSW,204,14.0,17.0,75,0.00,,,0.00,weatherlink.com 1.10,2013-02-23 16:20:00,
2013-02-23 11:35:00,79.8,70.0,29.98,SW,227,11.0,18.0,73,0.00,,,0.00,weatherlink.com 1.10,2013-02-23 16:35:00,
2013-02-23 11:50:00,79.9,70.0,29.98,SSW,204,8.0,20.0,71,0.00,,,0.00,weatherlink.com 1.10,2013-02-23 16:50:00,
2013-02-23 12:05:00,81.2,70.0,29.97,SW,236,9.0,20.0,68,0.00,,,0.00,weatherlink.com 1.10,2013-02-23 17:05:00,
2013-02-23 12:20:00,80.6,70.0,29.97,SW,221,5.0,16.0,69,0.00,,,0.00,weatherlink.com 1.10,2013-02-23 17:20:00,
2013-02-23 12:35:00,81.2,69.0,29.96,SW,236,7.0,15.0,67,0.00,,,0.00,weatherlink.com 1.10,2013-02-23 17:35:00,
2013-02-23 12:50:00,81.3,69.0,29.95,SSW,198,7.0,13.0,67,0.00,,,0.00,weatherlink.com 1.10,2013-02-23 17:50:00,
2013-02-23 13:05:00,83.0,69.0,29.94,SSW,209,8.0,17.0,62,0.00,,,0.00,weatherlink.com 1.10,2013-02-23 18:05:00,
2013-02-23 13:20:00,83.0,69.0,29.94,SW,224,9.0,19.0,62,0.00,,,0.00,weatherlink.com 1.10,2013-02-23 18:20:00,
2013-02-23 13:35:00,83.2,68.0,29.93,SW,234,14.0,19.0,61,0.00,,,0.00,weatherlink.com 1.10,2013-02-23 18:35:00,
2013-02-23 13:50:00,83.9,68.0,29.92,SSW,213,10.0,15.0,59,0.00,,,0.00,weatherlink.com 1.10,2013-02-23 18:50:00,
2013-02-23 14:05:00,83.4,68.0,29.92,SW,228,14.0,17.0,61,0.00,,,0.00,weatherlink.com 1.10,2013-02-23 19:05:00,
2013-02-23 14:20:00,84.1,69.0,29.90,SSW,210,12.0,20.0,60,0.00,,,0.00,weatherlink.com 1.10,2013-02-23 19:20:00,
2013-02-23 14:35:00,83.6,68.0,29.91,SW,232,13.0,23.0,60,0.00,,,0.00,weatherlink.com 1.10,2013-02-23 19:35:00,
2013-02-23 14:50:00,83.9,68.0,29.91,SW,221,6.0,18.0,60,0.00,,,0.00,weatherlink.com 1.10,2013-02-23 19:50:00,
2013-02-23 15:05:00,83.7,68.0,29.91,WSW,243,12.0,22.0,59,0.00,,,0.00,weatherlink.com 1.10,2013-02-23 20:05:00,
2013-02-23 15:20:00,83.1,67.0,29.91,West,267,10.0,19.0,59,0.00,,,0.00,weatherlink.com 1.10,2013-02-23 20:20:00,
2013-02-23 15:35:00,83.3,68.0,29.91,SW,232,9.0,16.0,61,0.00,,,0.00,weatherlink.com 1.10,2013-02-23 20:35:00,
2013-02-23 15:50:00,82.5,69.0,29.90,West,270,10.0,14.0,63,0.00,,,0.00,weatherlink.com 1.10,2013-02-23 20:50:00,
2013-02-23 16:05:00,82.8,68.0,29.90,WSW,244,14.0,15.0,61,0.00,,,0.00,weatherlink.com 1.10,2013-02-23 21:05:00,
2013-02-23 16:20:00,82.5,68.0,29.89,SSW,211,12.0,14.0,61,0.00,,,0.00,weatherlink.com 1.10,2013-02-23 21:20:00,
2013-02-23 16:35:00,82.2,68.0,29.89,SW,234,9.0,16.0,62,0.00,,,0.00,weatherlink.com 1.10,2013-02-23 21:35:00,
2013-02-23 16:50:00,82.6,68.0,29.89,WSW,240,11.0,16.0,61,0.00,,,0.00,weatherlink.com 1.10,2013-02-23 21:50:00,
2013-02-23 17:05:00,81.4,68.0,29.89,West,259,7.0,14.0,64,0.00,,,0.00,weatherlink.com 1.10,2013-02-23 22:05:00,
2013-02-23 17:20:00,81.1,69.0,29.90,SW,225,5.0,12.0,66,0.00,,,0.00,weatherlink.com 1.10,2013-02-23 22:20:00,
2013-02-23 17:35:00,80.5,69.0,29.90,SW,223,6.0,14.0,67,0.00,,,0.00,weatherlink.com 1.10,2013-02-23 22:35:00,
2013-02-23 17:50:00,79.8,68.0,29.90,WSW,237,3.0,12.0,68,0.00,,,0.00,weatherlink.com 1.10,2013-02-23 22:50:00,
2013-02-23 18:05:00,79.2,69.0,29.91,WSW,244,2.0,10.0,70,0.00,,,0.00,weatherlink.com 1.10,2013-02-23 23:05:00,
2013-02-23 18:20:00,78.7,69.0,29.91,WSW,255,7.0,10.0,72,0.00,,,0.00,weatherlink.com 1.10,2013-02-23 23:20:00,
2013-02-23 18:35:00,78.1,69.0,29.91,WSW,246,4.0,10.0,73,0.00,,,0.00,weatherlink.com 1.10,2013-02-23 23:35:00,
2013-02-23 18:50:00,77.4,69.0,29.92,SW,226,4.0,9.0,75,0.00,,,0.00,weatherlink.com 1.10,2013-02-23 23:50:00,
2013-02-23 19:05:00,76.7,69.0,29.93,WSW,246,7.0,7.0,78,0.00,,,0.00,weatherlink.com 1.10,2013-02-24 00:05:00,
2013-02-23 19:20:00,75.8,70.0,29.93,WSW,243,5.0,7.0,81,0.00,,,0.00,weatherlink.com 1.10,2013-02-24 00:20:00,
2013-02-23 19:35:00,75.1,70.0,29.93,WSW,243,3.0,10.0,83,0.00,,,0.00,weatherlink.com 1.10,2013-02-24 00:35:00,
2013-02-23 19:50:00,74.7,70.0,29.93,West,262,3.0,10.0,84,0.00,,,0.00,weatherlink.com 1.10,2013-02-24 00:50:00,
2013-02-23 20:05:00,74.1,70.0,29.94,WSW,255,2.0,7.0,86,0.00,,,0.00,weatherlink.com 1.10,2013-02-24 01:05:00,
2013-02-23 20:21:00,73.7,70.0,29.94,WNW,284,4.0,9.0,88,0.00,,,0.00,weatherlink.com 1.10,2013-02-24 01:21:00,
2013-02-23 20:36:00,73.3,70.0,29.93,West,269,3.0,8.0,89,0.00,,,0.00,weatherlink.com 1.10,2013-02-24 01:36:00,
2013-02-23 20:51:00,72.6,70.0,29.94,WSW,252,1.0,7.0,90,0.00,,,0.00,weatherlink.com 1.10,2013-02-24 01:51:00,
2013-02-23 21:06:00,72.2,70.0,29.94,West,271,1.0,5.0,92,0.00,,,0.00,weatherlink.com 1.10,2013-02-24 02:06:00,
2013-02-23 21:21:00,71.9,70.0,29.94,WSW,242,0.0,4.0,93,0.00,,,0.00,weatherlink.com 1.10,2013-02-24 02:21:00,
2013-02-23 21:36:00,71.7,70.0,29.95,West,271,1.0,3.0,95,0.00,,,0.00,weatherlink.com 1.10,2013-02-24 02:36:00,
2013-02-23 21:51:00,71.6,70.0,29.95,SW,220,2.0,6.0,95,0.00,,,0.00,weatherlink.com 1.10,2013-02-24 02:51:00,
2013-02-23 22:06:00,71.2,70.0,29.95,SW,214,5.0,7.0,96,0.00,,,0.00,weatherlink.com 1.10,2013-02-24 03:06:00,
2013-02-23 22:21:00,70.9,70.0,29.95,WSW,250,1.0,6.0,96,0.00,,,0.00,weatherlink.com 1.10,2013-02-24 03:21:00,
2013-02-23 22:36:00,70.7,70.0,29.95,WSW,257,5.0,9.0,97,0.00,,,0.00,weatherlink.com 1.10,2013-02-24 03:36:00,
2013-02-23 22:51:00,70.3,69.0,29.95,SW,234,3.0,8.0,97,0.00,,,0.00,weatherlink.com 1.10,2013-02-24 03:51:00,
2013-02-23 23:06:00,69.7,69.0,29.95,SW,232,3.0,7.0,97,0.00,,,0.00,weatherlink.com 1.10,2013-02-24 04:06:00,
2013-02-23 23:21:00,69.5,69.0,29.95,SSW,211,4.0,7.0,98,0.00,,,0.00,weatherlink.com 1.10,2013-02-24 04:21:00,
2013-02-23 23:36:00,68.9,68.0,29.96,West,261,4.0,8.0,98,0.00,,,0.00,weatherlink.com 1.10,2013-02-24 04:36:00,
2013-02-23 23:51:00,68.5,68.0,29.95,WSW,244,3.0,9.0,98,0.00,,,0.00,weatherlink.com 1.10,2013-02-24 04:51:00,